createdAt,value
2023-03-29T00:02:31.035Z,101330.75
2023-03-29T00:05:01.880Z,101329.25
2023-03-29T00:07:30.048Z,101330.63
2023-03-29T00:09:56.712Z,101325.59
2023-03-29T00:12:23.257Z,101321.47
2023-03-29T00:14:50.342Z,101316.75
2023-03-29T00:17:16.868Z,101315.53
2023-03-29T00:19:45.113Z,101313.38
2023-03-29T00:22:12.010Z,101316.06
2023-03-29T00:24:38.510Z,101308.34
2023-03-29T00:27:05.316Z,101305.94
2023-03-29T00:29:32.704Z,101300.88
2023-03-29T00:31:59.291Z,101308.56
2023-03-29T00:34:30.732Z,101298.53
2023-03-29T00:36:58.098Z,101293.50
2023-03-29T00:39:26.369Z,101294.47
2023-03-29T00:41:53.016Z,101291.63
2023-03-29T00:44:56.926Z,101295.69
2023-03-29T00:47:36.813Z,101294.00
2023-03-29T00:50:16.312Z,101282.13
2023-03-29T00:52:48.481Z,101280.81
2023-03-29T00:55:19.162Z,101276.13
2023-03-29T00:57:46.764Z,101277.75
2023-03-29T01:00:20.791Z,101278.66
2023-03-29T01:02:54.266Z,101271.75
2023-03-29T01:05:40.405Z,101273.25
2023-03-29T01:08:18.014Z,101266.09
2023-03-29T01:11:02.696Z,101264.56
2023-03-29T01:13:41.325Z,101259.72
2023-03-29T01:16:11.222Z,101250.22
2023-03-29T01:18:38.333Z,101254.28
2023-03-29T01:21:20.377Z,101245.75
2023-03-29T01:24:15.229Z,101244.94
2023-03-29T01:26:55.212Z,101244.94
2023-03-29T01:29:27.385Z,101238.72
2023-03-29T01:32:03.346Z,101246.47
2023-03-29T01:34:50.208Z,101244.66
2023-03-29T01:37:28.584Z,101244.66
2023-03-29T01:39:55.261Z,101242.03
2023-03-29T01:42:42.479Z,101241.34
2023-03-29T01:45:25.029Z,101233.47
2023-03-29T01:48:07.933Z,101234.53
2023-03-29T01:50:47.296Z,101225.72
2023-03-29T01:53:26.487Z,101220.69
2023-03-29T01:55:56.812Z,101220.00
2023-03-29T01:58:33.960Z,101217.38
2023-03-29T02:01:05.708Z,101214.94
2023-03-29T02:03:34.411Z,101212.53
2023-03-29T02:06:04.814Z,101205.41
2023-03-29T02:08:31.939Z,101196.16
2023-03-29T02:10:58.429Z,101192.75
2023-03-29T02:13:25.367Z,101196.59
2023-03-29T02:15:52.314Z,101191.81
2023-03-29T02:18:20.215Z,101194.63
2023-03-29T02:20:49.726Z,101194.88
2023-03-29T02:23:27.312Z,101192.63
2023-03-29T02:25:56.813Z,101192.34
2023-03-29T02:28:26.295Z,101188.69
2023-03-29T02:31:11.555Z,101189.59
2023-03-29T02:33:53.562Z,101185.44
2023-03-29T02:36:27.441Z,101183.06
2023-03-29T02:38:55.912Z,101180.16
2023-03-29T02:41:25.715Z,101183.31
2023-03-29T02:43:53.989Z,101169.91
2023-03-29T02:46:21.016Z,101177.31
2023-03-29T02:48:51.719Z,101168.63
2023-03-29T02:51:25.383Z,101161.53
2023-03-29T02:54:17.773Z,101156.38
2023-03-29T02:56:46.391Z,101161.78
2023-03-29T02:59:14.383Z,101157.03
2023-03-29T03:01:44.813Z,101157.09
2023-03-29T03:04:13.067Z,101160.34
2023-03-29T03:06:39.709Z,101155.63
2023-03-29T03:09:06.727Z,101132.88
2023-03-29T03:11:36.314Z,101135.59
2023-03-29T03:14:02.752Z,101127.06
2023-03-29T03:16:29.319Z,101126.59
2023-03-29T03:18:57.286Z,101119.13
2023-03-29T03:21:24.535Z,101113.16
2023-03-29T03:23:53.380Z,101115.34
2023-03-29T03:26:20.231Z,101106.31
2023-03-29T03:28:47.033Z,101103.84
2023-03-29T03:31:33.531Z,101097.06
2023-03-29T03:34:11.106Z,101091.69
2023-03-29T03:36:48.356Z,101094.50
2023-03-29T03:39:14.798Z,101089.34
2023-03-29T03:41:42.413Z,101082.91
2023-03-29T03:44:09.114Z,101093.44
2023-03-29T03:46:36.824Z,101085.81
2023-03-29T03:49:04.664Z,101089.56
2023-03-29T03:51:34.113Z,101093.75
2023-03-29T03:54:01.063Z,101094.59
2023-03-29T03:56:34.168Z,101094.59
2023-03-29T03:59:16.718Z,101081.34
2023-03-29T04:01:52.764Z,101075.97
2023-03-29T04:04:23.537Z,101069.59
2023-03-29T04:07:03.808Z,101084.94
2023-03-29T04:09:55.402Z,101082.03
2023-03-29T04:12:38.048Z,101080.72
2023-03-29T04:15:07.348Z,101081.22
2023-03-29T04:17:34.320Z,101072.66
2023-03-29T04:20:12.444Z,101072.66
2023-03-29T04:22:41.104Z,101077.81
2023-03-29T04:25:08.454Z,101072.88
2023-03-29T04:27:47.065Z,101078.44
2023-03-29T04:30:28.105Z,101080.06
2023-03-29T04:33:10.585Z,101076.78
2023-03-29T04:35:39.951Z,101073.13
2023-03-29T04:38:11.292Z,101083.06
2023-03-29T04:40:38.931Z,101080.22
2023-03-29T04:43:12.367Z,101082.47
2023-03-29T04:45:45.966Z,101077.09
2023-03-29T04:48:24.210Z,101074.63
2023-03-29T04:50:51.061Z,101075.44
2023-03-29T04:53:19.313Z,101071.69
2023-03-29T04:55:47.307Z,101075.22
2023-03-29T04:58:22.499Z,101065.72
2023-03-29T05:00:51.591Z,101066.19
2023-03-29T05:03:29.663Z,101069.47
2023-03-29T05:06:07.331Z,101057.06
2023-03-29T05:08:39.816Z,101056.59
2023-03-29T05:11:17.490Z,101043.97
2023-03-29T05:13:44.463Z,101047.03
2023-03-29T05:16:11.372Z,101040.59
2023-03-29T05:18:38.555Z,101039.63
2023-03-29T05:21:06.302Z,101038.50
2023-03-29T05:23:34.365Z,101037.81
2023-03-29T05:26:08.180Z,101033.03
2023-03-29T05:28:35.149Z,101025.63
2023-03-29T05:31:05.090Z,101027.63
2023-03-29T05:33:34.509Z,101026.34
2023-03-29T05:38:38.117Z,101033.97
2023-03-29T05:41:06.275Z,101028.59
2023-03-29T05:43:51.467Z,101026.47
2023-03-29T05:46:21.887Z,101024.25
2023-03-29T05:48:52.013Z,101027.75
2023-03-29T05:51:24.442Z,101023.91
2023-03-29T05:53:54.300Z,101017.72
2023-03-29T05:56:22.626Z,101016.91
2023-03-29T05:58:53.737Z,101023.28
2023-03-29T06:01:24.572Z,101017.66
2023-03-29T06:03:58.792Z,101019.41
2023-03-29T06:06:32.680Z,101017.66
2023-03-29T06:09:01.238Z,101019.75
2023-03-29T06:11:34.958Z,101019.66
2023-03-29T06:14:20.537Z,101022.97
2023-03-29T06:16:53.432Z,101020.38
2023-03-29T06:19:19.921Z,101022.63
2023-03-29T06:21:47.411Z,101022.50
2023-03-29T06:24:18.244Z,101019.47
2023-03-29T06:26:52.237Z,101019.38
2023-03-29T06:29:19.037Z,101018.91
2023-03-29T06:31:46.832Z,101013.38
2023-03-29T06:34:31.669Z,101017.50
2023-03-29T06:37:21.613Z,101004.94
2023-03-29T06:39:54.853Z,101013.28
2023-03-29T06:42:28.494Z,101006.94
2023-03-29T06:45:24.767Z,101012.56
2023-03-29T06:47:54.065Z,101004.00
2023-03-29T06:50:20.872Z,101013.13
2023-03-29T06:52:53.601Z,101014.44
2023-03-29T06:55:21.808Z,101016.06
2023-03-29T06:57:49.003Z,101014.19
2023-03-29T07:00:17.347Z,101017.47
2023-03-29T07:03:08.084Z,101013.69
2023-03-29T07:05:36.474Z,101011.50
2023-03-29T07:08:07.028Z,101015.22
2023-03-29T07:10:47.525Z,101010.53
2023-03-29T07:13:32.950Z,101017.94
2023-03-29T07:16:02.458Z,101018.16
2023-03-29T07:18:41.422Z,101028.94
2023-03-29T07:21:10.597Z,101024.38
2023-03-29T07:23:37.474Z,101009.59
2023-03-29T07:26:07.492Z,101009.81
2023-03-29T07:28:35.446Z,101019.66
2023-03-29T07:31:08.135Z,101032.47
2023-03-29T07:33:40.818Z,101029.88
2023-03-29T07:36:08.626Z,101026.22
2023-03-29T07:38:36.691Z,101033.50
2023-03-29T07:41:09.448Z,101026.53
2023-03-29T07:43:46.963Z,101039.38
2023-03-29T07:46:17.034Z,101041.59
2023-03-29T07:48:43.802Z,101046.63
2023-03-29T07:51:13.923Z,101035.38
2023-03-29T07:53:44.693Z,101041.13
2023-03-29T07:56:27.014Z,101045.19
2023-03-29T07:59:12.497Z,101054.06
2023-03-29T08:01:42.590Z,101043.94
2023-03-29T08:04:38.198Z,101038.16
2023-03-29T08:07:29.754Z,101036.09
2023-03-29T08:10:21.033Z,101040.47
2023-03-29T08:12:52.399Z,101037.03
2023-03-29T08:15:26.636Z,101034.66
2023-03-29T08:17:54.937Z,101032.69
2023-03-29T08:20:22.871Z,101031.63
2023-03-29T08:22:54.924Z,101034.34
2023-03-29T08:25:33.218Z,101037.13
2023-03-29T08:27:59.669Z,101027.88
2023-03-29T08:30:38.585Z,101026.66
2023-03-29T08:33:06.504Z,101030.16
2023-03-29T08:35:33.112Z,101034.13
2023-03-29T08:38:15.027Z,101017.72
2023-03-29T08:40:42.330Z,101020.84
2023-03-29T08:43:24.692Z,101021.00
2023-03-29T08:46:16.342Z,101019.69
2023-03-29T08:48:52.663Z,101019.38
2023-03-29T08:51:28.092Z,101017.06
2023-03-29T08:54:02.724Z,101028.59
2023-03-29T08:56:40.517Z,101021.22
2023-03-29T08:59:33.096Z,101017.97
2023-03-29T09:02:10.802Z,101018.53
2023-03-29T09:04:42.457Z,101022.72
2023-03-29T09:07:32.569Z,101021.16
2023-03-29T09:09:59.592Z,101026.06
2023-03-29T09:12:56.928Z,101027.00
2023-03-29T09:16:08.125Z,101024.44
2023-03-29T09:19:08.573Z,101020.25
2023-03-29T09:22:16.605Z,101026.81
2023-03-29T09:25:03.300Z,101029.50
2023-03-29T09:27:32.996Z,101037.47
2023-03-29T09:30:27.129Z,101021.16
2023-03-29T09:33:11.674Z,101028.38
2023-03-29T09:35:59.714Z,101024.28
2023-03-29T09:38:29.959Z,101026.41
2023-03-29T09:41:02.852Z,101029.19
2023-03-29T09:43:36.146Z,101025.59
2023-03-29T09:46:15.755Z,101019.63
2023-03-29T09:48:45.741Z,101020.59
2023-03-29T09:51:13.490Z,101011.00
2023-03-29T09:53:40.823Z,101003.03
2023-03-29T09:56:16.825Z,101014.16
2023-03-29T09:58:48.181Z,101010.63
2023-03-29T10:01:17.494Z,101009.94
2023-03-29T10:03:51.560Z,101001.88
2023-03-29T10:06:24.976Z,100999.91
2023-03-29T10:08:58.804Z,100993.81
2023-03-29T10:11:33.174Z,100992.09
2023-03-29T10:14:12.346Z,100980.56
2023-03-29T10:17:08.497Z,100991.38
2023-03-29T10:19:36.222Z,100990.59
2023-03-29T10:22:14.570Z,100984.16
2023-03-29T10:24:49.021Z,100984.19
2023-03-29T10:27:20.544Z,100994.19
2023-03-29T10:29:47.969Z,100996.56
2023-03-29T10:32:17.026Z,100991.63
2023-03-29T10:34:46.386Z,100994.75
2023-03-29T10:37:16.442Z,100991.78
2023-03-29T10:39:43.306Z,101002.38
2023-03-29T10:42:14.622Z,100994.44
2023-03-29T10:44:41.305Z,100995.34
2023-03-29T10:47:20.169Z,100997.03
2023-03-29T10:49:56.702Z,100995.53
2023-03-29T10:52:25.889Z,100982.28
2023-03-29T10:54:56.411Z,100976.63
2023-03-29T10:57:32.384Z,100973.63
2023-03-29T11:00:18.159Z,100962.53
2023-03-29T11:02:57.163Z,100966.63
2023-03-29T11:05:31.316Z,100961.06
2023-03-29T11:08:19.366Z,100964.63
2023-03-29T11:11:22.323Z,100966.63
2023-03-29T11:14:22.348Z,100959.91
2023-03-29T11:17:27.247Z,100957.53
2023-03-29T11:19:59.717Z,100964.59
2023-03-29T11:22:35.229Z,100970.88
2023-03-29T11:25:20.347Z,100972.31
2023-03-29T11:28:11.444Z,100970.13
2023-03-29T11:30:43.809Z,100972.59
2023-03-29T11:33:23.048Z,100974.44
2023-03-29T11:36:06.975Z,100956.00
2023-03-29T11:38:39.236Z,100951.97
2023-03-29T11:41:15.822Z,100952.03
2023-03-29T11:44:03.218Z,100952.81
2023-03-29T11:46:39.468Z,100948.13
2023-03-29T11:49:22.945Z,100956.19
2023-03-29T11:52:04.225Z,100951.06
2023-03-29T11:54:38.212Z,100958.09
2023-03-29T11:57:16.259Z,100952.69
2023-03-29T11:59:59.070Z,100955.19
2023-03-29T12:02:50.756Z,100948.19
2023-03-29T12:05:25.526Z,100952.81
2023-03-29T12:07:56.091Z,100940.59
2023-03-29T12:10:30.881Z,100941.69
2023-03-29T12:13:06.056Z,100932.97
2023-03-29T12:15:41.173Z,100944.13
2023-03-29T12:18:19.999Z,100934.91
2023-03-29T12:20:52.155Z,100932.97
2023-03-29T12:23:19.152Z,100925.88
2023-03-29T12:26:06.811Z,100921.81
2023-03-29T12:29:17.448Z,100927.53
2023-03-29T12:32:22.419Z,100926.16
2023-03-29T12:35:26.635Z,100917.19
2023-03-29T12:38:30.753Z,100921.75
2023-03-29T12:41:19.377Z,100934.63
2023-03-29T12:44:05.743Z,100936.25
2023-03-29T12:46:40.614Z,100931.63
2023-03-29T12:49:34.958Z,100929.44
2023-03-29T12:52:17.435Z,100933.78
2023-03-29T12:55:03.063Z,100943.88
2023-03-29T12:57:42.445Z,100945.72
2023-03-29T13:00:27.248Z,100933.66
2023-03-29T13:03:21.527Z,100931.22
2023-03-29T13:06:03.678Z,100938.56
2023-03-29T13:08:43.666Z,100945.91
2023-03-29T13:11:27.739Z,100920.09
2023-03-29T13:13:54.294Z,100921.19
2023-03-29T13:16:30.975Z,100917.38
2023-03-29T13:19:06.478Z,100923.13
2023-03-29T13:22:07.623Z,100914.69
2023-03-29T13:24:40.204Z,100907.09
2023-03-29T13:27:22.919Z,100906.59
2023-03-29T13:30:06.303Z,100907.94
2023-03-29T13:33:00.901Z,100901.16
2023-03-29T13:36:07.041Z,100895.47
2023-03-29T13:38:46.237Z,100890.81
2023-03-29T13:41:28.935Z,100892.22
2023-03-29T13:43:58.780Z,100892.19
2023-03-29T13:46:36.901Z,100878.31
2023-03-29T13:49:15.426Z,100873.41
2023-03-29T13:51:48.300Z,100875.56
2023-03-29T13:54:23.073Z,100864.63
2023-03-29T14:00:23.081Z,100861.94
2023-03-29T14:02:55.175Z,100861.13
2023-03-29T14:05:32.401Z,100854.88
2023-03-29T14:08:08.341Z,100851.56
2023-03-29T14:10:45.228Z,100849.97
2023-03-29T14:13:18.088Z,100843.13
2023-03-29T14:15:50.482Z,100841.78
2023-03-29T14:18:21.286Z,100833.34
2023-03-29T14:20:50.029Z,100831.69
2023-03-29T14:23:22.216Z,100823.88
2023-03-29T14:25:49.161Z,100835.84
2023-03-29T14:28:22.540Z,100836.41
2023-03-29T14:30:52.328Z,100840.22
2023-03-29T14:33:37.981Z,100833.69
2023-03-29T14:36:05.331Z,100825.50
2023-03-29T14:38:32.464Z,100826.31
2023-03-29T14:41:02.946Z,100824.97
2023-03-29T14:43:32.367Z,100820.06
2023-03-29T14:46:03.489Z,100825.53
2023-03-29T14:48:33.167Z,100833.97
2023-03-29T14:51:00.583Z,100826.88
2023-03-29T14:53:32.250Z,100828.50
2023-03-29T14:55:59.723Z,100829.31
2023-03-29T14:58:34.723Z,100827.66
2023-03-29T15:01:16.084Z,100817.91
2023-03-29T15:03:57.394Z,100820.09
2023-03-29T15:06:28.595Z,100814.91
2023-03-29T15:09:05.093Z,100814.41
2023-03-29T15:11:33.887Z,100806.50
2023-03-29T15:14:04.599Z,100798.63
2023-03-29T15:16:31.558Z,100804.59
2023-03-29T15:19:01.660Z,100803.47
2023-03-29T15:21:35.021Z,100801.34
2023-03-29T15:24:03.793Z,100797.50
2023-03-29T15:26:33.770Z,100804.63
2023-03-29T15:29:11.004Z,100795.66
2023-03-29T15:31:41.135Z,100795.09
2023-03-29T15:34:10.173Z,100787.19
2023-03-29T15:36:43.356Z,100777.16
2023-03-29T15:39:15.253Z,100776.84
2023-03-29T15:41:42.863Z,100779.28
2023-03-29T15:44:10.798Z,100775.50
2023-03-29T15:46:37.509Z,100776.06
2023-03-29T15:49:04.971Z,100765.72
2023-03-29T15:51:31.926Z,100761.34
2023-03-29T15:53:58.455Z,100762.47
2023-03-29T15:56:26.598Z,100761.94
2023-03-29T15:58:53.024Z,100763.56
2023-03-29T16:01:34.464Z,100763.28
2023-03-29T16:04:01.990Z,100763.28
2023-03-29T16:06:28.568Z,100772.56
2023-03-29T16:08:57.230Z,100758.97
2023-03-29T16:11:24.362Z,100773.41
2023-03-29T16:13:51.343Z,100773.94
2023-03-29T16:16:17.818Z,100760.09
2023-03-29T16:18:44.208Z,100764.97
2023-03-29T16:21:14.201Z,100760.91
2023-03-29T16:23:41.667Z,100751.13
2023-03-29T16:26:08.426Z,100754.66
2023-03-29T16:28:34.947Z,100756.25
2023-03-29T16:31:02.000Z,100751.94
2023-03-29T16:33:28.498Z,100762.28
2023-03-29T16:35:55.071Z,100749.50
2023-03-29T16:38:24.032Z,100755.72
2023-03-29T16:40:50.718Z,100767.38
2023-03-29T16:43:18.577Z,100764.41
2023-03-29T16:45:45.358Z,100761.97
2023-03-29T16:48:20.038Z,100767.94
2023-03-29T16:50:50.035Z,100757.34
2023-03-29T16:53:21.711Z,100758.19
2023-03-29T16:55:49.744Z,100751.09
2023-03-29T16:58:16.271Z,100754.34
2023-03-29T17:00:45.023Z,100752.19
2023-03-29T17:03:12.950Z,100738.88
2023-03-29T17:05:42.000Z,100738.88
2023-03-29T17:08:10.144Z,100739.41
2023-03-29T17:10:39.652Z,100735.34
2023-03-29T17:13:06.672Z,100725.28
2023-03-29T17:15:33.223Z,100717.13
2023-03-29T17:17:59.751Z,100711.19
2023-03-29T17:20:26.416Z,100702.50
2023-03-29T17:22:55.946Z,100703.84
2023-03-29T17:25:23.295Z,100707.63
2023-03-29T17:27:50.567Z,100705.75
2023-03-29T17:30:17.220Z,100700.03
2023-03-29T17:32:44.049Z,100696.75
2023-03-29T17:35:11.580Z,100700.84
2023-03-29T17:37:38.023Z,100703.28
2023-03-29T17:40:10.200Z,100697.31
2023-03-29T17:42:36.705Z,100696.22
2023-03-29T17:45:03.841Z,100702.75
2023-03-29T17:47:30.943Z,100696.50
2023-03-29T17:49:57.478Z,100699.47
2023-03-29T17:52:24.199Z,100691.59
2023-03-29T17:54:50.805Z,100687.53
2023-03-29T17:57:17.343Z,100685.63
2023-03-29T17:59:43.739Z,100689.97
2023-03-29T18:02:28.650Z,100701.38
2023-03-29T18:04:55.794Z,100696.47
2023-03-29T18:07:22.325Z,100691.59
2023-03-29T18:09:51.309Z,100689.72
2023-03-29T18:12:17.693Z,100689.16
2023-03-29T18:14:44.529Z,100689.41
2023-03-29T18:17:11.067Z,100683.44
2023-03-29T18:19:37.509Z,100697.28
2023-03-29T18:22:04.173Z,100694.03
2023-03-29T18:24:30.593Z,100689.66
2023-03-29T18:26:57.283Z,100695.38
2023-03-29T18:29:24.250Z,100698.06
2023-03-29T18:31:50.833Z,100698.06
2023-03-29T18:34:17.321Z,100694.03
2023-03-29T18:36:43.744Z,100693.47
2023-03-29T18:39:10.917Z,100701.91
2023-03-29T18:41:37.347Z,100691.03
2023-03-29T18:44:04.604Z,100700.78
2023-03-29T18:46:31.797Z,100699.19
2023-03-29T18:49:01.943Z,100705.69
2023-03-29T18:51:29.339Z,100710.56
2023-03-29T18:53:56.554Z,100703.50
2023-03-29T18:56:23.381Z,100698.06
2023-03-29T18:58:49.943Z,100691.84
2023-03-29T19:01:16.576Z,100678.81
2023-03-29T19:03:43.438Z,100661.19
2023-03-29T19:06:11.673Z,100667.97
2023-03-29T19:08:41.065Z,100669.88
2023-03-29T19:11:10.567Z,100660.38
2023-03-29T19:13:37.111Z,100657.66
2023-03-29T19:16:04.861Z,100657.63
2023-03-29T19:18:31.852Z,100652.78
2023-03-29T19:20:58.549Z,100656.00
2023-03-29T19:23:28.065Z,100651.66
2023-03-29T19:25:56.328Z,100653.03
2023-03-29T19:28:24.224Z,100642.19
2023-03-29T19:30:51.190Z,100637.56
2023-03-29T19:33:18.389Z,100632.41
2023-03-29T19:35:44.895Z,100634.31
2023-03-29T19:38:11.615Z,100629.69
2023-03-29T19:40:38.349Z,100628.88
2023-03-29T19:43:04.903Z,100623.19
2023-03-29T19:45:31.457Z,100627.25
2023-03-29T19:48:02.554Z,100621.53
2023-03-29T19:50:31.943Z,100632.38
2023-03-29T19:52:58.562Z,100620.44
2023-03-29T19:55:26.716Z,100601.75
2023-03-29T19:57:53.203Z,100593.88
2023-03-29T20:00:24.448Z,100592.50
2023-03-29T20:02:55.569Z,100586.81
2023-03-29T20:05:24.149Z,100585.44
2023-03-29T20:07:50.730Z,100576.50
2023-03-29T20:10:17.214Z,100574.59
2023-03-29T20:12:43.741Z,100575.94
2023-03-29T20:15:10.713Z,100564.28
2023-03-29T20:17:40.676Z,100551.53
2023-03-29T20:20:09.969Z,100558.31
2023-03-29T20:22:38.058Z,100546.66
2023-03-29T20:25:05.256Z,100554.53
2023-03-29T20:27:31.730Z,100554.25
2023-03-29T20:29:58.540Z,100555.34
2023-03-29T20:32:25.088Z,100546.13
2023-03-29T20:34:51.510Z,100537.97
2023-03-29T20:37:17.959Z,100539.06
2023-03-29T20:39:45.105Z,100533.38
2023-03-29T20:42:13.999Z,100539.88
2023-03-29T20:44:40.444Z,100542.59
2023-03-29T20:47:08.174Z,100544.78
2023-03-29T20:49:39.190Z,100540.16
2023-03-29T20:52:15.455Z,100537.72
2023-03-29T20:54:43.964Z,100531.50
2023-03-29T20:57:18.972Z,100521.72
2023-03-29T20:59:45.755Z,100517.38
2023-03-29T21:02:18.878Z,100515.47
2023-03-29T21:04:49.749Z,100517.38
2023-03-29T21:07:17.084Z,100515.75
2023-03-29T21:09:43.610Z,100507.88
2023-03-29T21:12:10.122Z,100507.84
2023-03-29T21:14:36.577Z,100509.22
2023-03-29T21:17:03.092Z,100512.47
2023-03-29T21:19:31.027Z,100500.00
2023-03-29T21:21:58.493Z,100507.31
2023-03-29T21:24:25.878Z,100502.72
2023-03-29T21:26:52.949Z,100510.84
2023-03-29T21:29:19.637Z,100507.59
2023-03-29T21:31:46.332Z,100504.63
2023-03-29T21:34:12.980Z,100501.63
2023-03-29T21:36:40.334Z,100500.28
2023-03-29T21:39:06.934Z,100486.97
2023-03-29T21:41:33.656Z,100472.34
2023-03-29T21:44:00.940Z,100464.75
2023-03-29T21:46:29.428Z,100465.28
2023-03-29T21:48:57.812Z,100455.78
2023-03-29T21:51:24.583Z,100451.44
2023-03-29T21:53:51.206Z,100447.91
2023-03-29T21:56:17.855Z,100451.44
2023-03-29T21:58:44.867Z,100448.19
2023-03-29T22:01:11.480Z,100446.28
2023-03-29T22:03:38.514Z,100444.13
2023-03-29T22:06:10.449Z,100443.59
2023-03-29T22:08:41.224Z,100437.91
2023-03-29T22:11:16.214Z,100434.38
2023-03-29T22:13:44.418Z,100425.41
2023-03-29T22:16:16.484Z,100423.25
2023-03-29T22:18:43.221Z,100425.41
2023-03-29T22:21:34.712Z,100415.69
2023-03-29T22:24:13.177Z,100414.59
2023-03-29T22:26:44.866Z,100396.44
2023-03-29T22:29:11.852Z,100403.22
2023-03-29T22:31:39.355Z,100398.06
2023-03-29T22:34:07.597Z,100392.63
2023-03-29T22:36:36.000Z,100376.91
2023-03-29T22:39:04.280Z,100387.75
2023-03-29T22:41:30.764Z,100396.44
2023-03-29T22:43:59.314Z,100392.91
2023-03-29T22:46:26.437Z,100385.84
2023-03-29T22:48:53.244Z,100396.97
2023-03-29T22:51:21.142Z,100383.72
2023-03-29T22:53:47.678Z,100363.91
2023-03-29T22:56:15.974Z,100367.16
2023-03-29T22:58:42.649Z,100363.63
2023-03-29T23:01:09.423Z,100357.69
2023-03-29T23:03:36.143Z,100359.03
2023-03-29T23:06:03.259Z,100353.88
2023-03-29T23:08:31.729Z,100349.78
2023-03-29T23:10:59.274Z,100342.75
2023-03-29T23:13:29.050Z,100344.13
2023-03-29T23:16:01.175Z,100337.91
2023-03-29T23:18:29.611Z,100326.22
2023-03-29T23:20:58.495Z,100329.22
2023-03-29T23:23:26.956Z,100320.78
2023-03-29T23:25:55.513Z,100322.16
2023-03-29T23:28:26.085Z,100317.56
2023-03-29T23:31:04.099Z,100319.19
2023-03-29T23:33:33.543Z,100312.69
2023-03-29T23:36:03.650Z,100304.53
2023-03-29T23:38:31.148Z,100300.50
2023-03-29T23:41:00.441Z,100301.31
2023-03-29T23:43:33.457Z,100309.44
2023-03-29T23:46:08.490Z,100301.31
2023-03-29T23:48:34.973Z,100291.03
2023-03-29T23:51:02.841Z,100292.34
2023-03-29T23:53:30.643Z,100286.66
2023-03-29T23:56:02.015Z,100283.41
2023-03-29T23:58:30.524Z,100281.25
